sensor_id;sensor_type;location;lat;lon;timestamp;P1;durP1;ratioP1;P2;durP2;ratioP2
47960;SDS011;33721;48.852;9.936;2023-11-22T00:00:06;5.13;;;2.53;;
47960;SDS011;33721;48.852;9.936;2023-11-22T00:02:33;7.28;;;3.38;;
47960;SDS011;33721;48.852;9.936;2023-11-22T00:04:59;9.23;;;3.53;;
47960;SDS011;33721;48.852;9.936;2023-11-22T00:07:25;7.03;;;3.33;;
47960;SDS011;33721;48.852;9.936;2023-11-22T00:09:54;6.78;;;3.30;;
47960;SDS011;33721;48.852;9.936;2023-11-22T00:12:20;6.78;;;3.20;;
47960;SDS011;33721;48.852;9.936;2023-11-22T00:14:45;6.20;;;3.00;;
47960;SDS011;33721;48.852;9.936;2023-11-22T00:17:12;6.80;;;3.38;;
47960;SDS011;33721;48.852;9.936;2023-11-22T00:19:37;8.52;;;4.00;;
47960;SDS011;33721;48.852;9.936;2023-11-22T00:22:03;9.65;;;3.22;;
47960;SDS011;33721;48.852;9.936;2023-11-22T00:24:36;8.93;;;3.70;;
47960;SDS011;33721;48.852;9.936;2023-11-22T00:27:02;6.95;;;3.25;;
47960;SDS011;33721;48.852;9.936;2023-11-22T00:29:28;7.72;;;3.40;;
47960;SDS011;33721;48.852;9.936;2023-11-22T00:31:54;6.55;;;3.22;;
47960;SDS011;33721;48.852;9.936;2023-11-22T00:34:20;7.18;;;3.35;;
47960;SDS011;33721;48.852;9.936;2023-11-22T00:36:45;7.68;;;3.78;;
47960;SDS011;33721;48.852;9.936;2023-11-22T00:39:11;8.70;;;3.97;;
47960;SDS011;33721;48.852;9.936;2023-11-22T00:41:38;10.23;;;4.15;;
47960;SDS011;33721;48.852;9.936;2023-11-22T00:44:04;8.23;;;3.95;;
47960;SDS011;33721;48.852;9.936;2023-11-22T00:46:31;11.73;;;4.28;;
47960;SDS011;33721;48.852;9.936;2023-11-22T00:48:57;10.27;;;4.65;;
47960;SDS011;33721;48.852;9.936;2023-11-22T00:51:23;10.38;;;4.65;;
47960;SDS011;33721;48.852;9.936;2023-11-22T00:53:49;10.63;;;4.28;;
47960;SDS011;33721;48.852;9.936;2023-11-22T00:56:15;12.27;;;5.18;;
47960;SDS011;33721;48.852;9.936;2023-11-22T00:58:41;12.73;;;5.30;;
47960;SDS011;33721;48.852;9.936;2023-11-22T01:01:06;13.85;;;5.32;;
47960;SDS011;33721;48.852;9.936;2023-11-22T01:03:32;12.50;;;4.72;;
47960;SDS011;33721;48.852;9.936;2023-11-22T01:05:58;11.77;;;5.57;;
47960;SDS011;33721;48.852;9.936;2023-11-22T01:08:24;14.30;;;5.60;;
47960;SDS011;33721;48.852;9.936;2023-11-22T01:10:49;12.50;;;5.18;;
47960;SDS011;33721;48.852;9.936;2023-11-22T01:13:15;9.68;;;4.50;;
47960;SDS011;33721;48.852;9.936;2023-11-22T01:15:41;11.40;;;4.95;;
47960;SDS011;33721;48.852;9.936;2023-11-22T01:18:07;12.77;;;5.32;;
47960;SDS011;33721;48.852;9.936;2023-11-22T01:20:32;9.40;;;4.72;;
47960;SDS011;33721;48.852;9.936;2023-11-22T01:22:58;13.60;;;5.32;;
47960;SDS011;33721;48.852;9.936;2023-11-22T01:25:24;10.27;;;4.68;;
47960;SDS011;33721;48.852;9.936;2023-11-22T01:27:49;10.38;;;4.88;;
47960;SDS011;33721;48.852;9.936;2023-11-22T01:30:15;11.10;;;5.07;;
47960;SDS011;33721;48.852;9.936;2023-11-22T01:32:43;13.38;;;5.20;;
47960;SDS011;33721;48.852;9.936;2023-11-22T01:35:09;11.70;;;4.40;;
47960;SDS011;33721;48.852;9.936;2023-11-22T01:37:35;9.88;;;4.45;;
47960;SDS011;33721;48.852;9.936;2023-11-22T01:40:01;12.68;;;5.72;;
47960;SDS011;33721;48.852;9.936;2023-11-22T01:42:28;14.23;;;6.03;;
47960;SDS011;33721;48.852;9.936;2023-11-22T01:44:54;13.50;;;5.88;;
47960;SDS011;33721;48.852;9.936;2023-11-22T01:47:20;11.40;;;5.07;;
47960;SDS011;33721;48.852;9.936;2023-11-22T01:49:46;9.77;;;4.63;;
47960;SDS011;33721;48.852;9.936;2023-11-22T01:52:12;15.38;;;4.70;;
47960;SDS011;33721;48.852;9.936;2023-11-22T01:54:38;13.05;;;4.82;;
47960;SDS011;33721;48.852;9.936;2023-11-22T01:57:05;10.80;;;5.10;;
47960;SDS011;33721;48.852;9.936;2023-11-22T01:59:33;8.63;;;4.50;;
47960;SDS011;33721;48.852;9.936;2023-11-22T02:01:59;8.80;;;4.15;;
47960;SDS011;33721;48.852;9.936;2023-11-22T02:04:25;9.88;;;4.15;;
47960;SDS011;33721;48.852;9.936;2023-11-22T02:06:51;9.18;;;4.15;;
47960;SDS011;33721;48.852;9.936;2023-11-22T02:09:17;11.60;;;4.72;;
47960;SDS011;33721;48.852;9.936;2023-11-22T02:11:43;8.50;;;4.45;;
47960;SDS011;33721;48.852;9.936;2023-11-22T02:14:12;14.85;;;5.90;;
47960;SDS011;33721;48.852;9.936;2023-11-22T02:16:38;12.40;;;5.70;;
47960;SDS011;33721;48.852;9.936;2023-11-22T02:19:05;14.40;;;6.55;;
47960;SDS011;33721;48.852;9.936;2023-11-22T02:21:32;13.27;;;6.18;;
47960;SDS011;33721;48.852;9.936;2023-11-22T02:23:58;12.23;;;5.82;;
47960;SDS011;33721;48.852;9.936;2023-11-22T02:26:24;12.43;;;5.90;;
47960;SDS011;33721;48.852;9.936;2023-11-22T02:28:50;13.02;;;5.82;;
47960;SDS011;33721;48.852;9.936;2023-11-22T02:31:16;12.63;;;6.30;;
47960;SDS011;33721;48.852;9.936;2023-11-22T02:33:42;13.88;;;6.35;;
47960;SDS011;33721;48.852;9.936;2023-11-22T02:36:09;13.90;;;6.13;;
47960;SDS011;33721;48.852;9.936;2023-11-22T02:38:37;13.38;;;5.60;;
47960;SDS011;33721;48.852;9.936;2023-11-22T02:41:03;11.63;;;5.63;;
47960;SDS011;33721;48.852;9.936;2023-11-22T02:43:29;12.45;;;6.25;;
47960;SDS011;33721;48.852;9.936;2023-11-22T02:45:55;14.55;;;6.32;;
47960;SDS011;33721;48.852;9.936;2023-11-22T02:48:21;15.27;;;5.72;;
47960;SDS011;33721;48.852;9.936;2023-11-22T02:50:47;13.18;;;6.75;;
47960;SDS011;33721;48.852;9.936;2023-11-22T02:53:14;11.57;;;5.45;;
47960;SDS011;33721;48.852;9.936;2023-11-22T02:55:39;10.23;;;5.13;;
47960;SDS011;33721;48.852;9.936;2023-11-22T02:58:06;10.75;;;5.18;;
47960;SDS011;33721;48.852;9.936;2023-11-22T03:00:31;13.82;;;5.30;;
47960;SDS011;33721;48.852;9.936;2023-11-22T03:02:59;13.20;;;5.40;;
47960;SDS011;33721;48.852;9.936;2023-11-22T03:05:25;11.68;;;5.15;;
47960;SDS011;33721;48.852;9.936;2023-11-22T03:07:50;10.30;;;4.90;;
47960;SDS011;33721;48.852;9.936;2023-11-22T03:10:16;13.00;;;5.53;;
47960;SDS011;33721;48.852;9.936;2023-11-22T03:12:43;15.48;;;5.53;;
47960;SDS011;33721;48.852;9.936;2023-11-22T03:15:09;12.20;;;5.65;;
47960;SDS011;33721;48.852;9.936;2023-11-22T03:17:35;14.35;;;5.63;;
47960;SDS011;33721;48.852;9.936;2023-11-22T03:20:03;11.82;;;5.60;;
47960;SDS011;33721;48.852;9.936;2023-11-22T03:22:34;11.82;;;5.50;;
47960;SDS011;33721;48.852;9.936;2023-11-22T03:25:01;13.63;;;5.55;;
47960;SDS011;33721;48.852;9.936;2023-11-22T03:27:27;12.68;;;5.80;;
47960;SDS011;33721;48.852;9.936;2023-11-22T03:29:53;14.57;;;5.43;;
47960;SDS011;33721;48.852;9.936;2023-11-22T03:32:18;13.50;;;5.80;;
47960;SDS011;33721;48.852;9.936;2023-11-22T03:34:44;12.48;;;5.32;;
47960;SDS011;33721;48.852;9.936;2023-11-22T03:37:10;12.52;;;5.40;;
47960;SDS011;33721;48.852;9.936;2023-11-22T03:39:36;12.73;;;6.00;;
47960;SDS011;33721;48.852;9.936;2023-11-22T03:42:01;14.38;;;5.72;;
47960;SDS011;33721;48.852;9.936;2023-11-22T03:44:27;12.27;;;5.63;;
47960;SDS011;33721;48.852;9.936;2023-11-22T03:46:53;13.30;;;6.00;;
47960;SDS011;33721;48.852;9.936;2023-11-22T03:49:19;12.50;;;5.70;;
47960;SDS011;33721;48.852;9.936;2023-11-22T03:51:45;12.85;;;5.72;;
47960;SDS011;33721;48.852;9.936;2023-11-22T03:54:12;14.35;;;5.97;;
47960;SDS011;33721;48.852;9.936;2023-11-22T03:56:37;20.45;;;5.57;;
47960;SDS011;33721;48.852;9.936;2023-11-22T03:59:03;14.32;;;5.82;;
47960;SDS011;33721;48.852;9.936;2023-11-22T04:01:29;13.55;;;6.28;;
47960;SDS011;33721;48.852;9.936;2023-11-22T04:03:55;15.25;;;6.65;;
47960;SDS011;33721;48.852;9.936;2023-11-22T04:06:21;13.30;;;5.93;;
47960;SDS011;33721;48.852;9.936;2023-11-22T04:08:48;18.38;;;7.07;;
47960;SDS011;33721;48.852;9.936;2023-11-22T04:11:14;15.95;;;6.95;;
47960;SDS011;33721;48.852;9.936;2023-11-22T04:13:41;15.02;;;6.72;;
47960;SDS011;33721;48.852;9.936;2023-11-22T04:16:07;16.67;;;6.82;;
47960;SDS011;33721;48.852;9.936;2023-11-22T04:18:37;16.52;;;6.35;;
47960;SDS011;33721;48.852;9.936;2023-11-22T04:21:03;16.35;;;6.95;;
47960;SDS011;33721;48.852;9.936;2023-11-22T04:23:30;14.32;;;6.38;;
47960;SDS011;33721;48.852;9.936;2023-11-22T04:25:57;15.07;;;6.35;;
47960;SDS011;33721;48.852;9.936;2023-11-22T04:28:23;15.85;;;7.10;;
47960;SDS011;33721;48.852;9.936;2023-11-22T04:30:50;18.15;;;7.13;;
47960;SDS011;33721;48.852;9.936;2023-11-22T04:33:17;16.05;;;7.10;;
47960;SDS011;33721;48.852;9.936;2023-11-22T04:35:43;18.50;;;6.75;;
47960;SDS011;33721;48.852;9.936;2023-11-22T04:38:08;17.90;;;6.13;;
47960;SDS011;33721;48.852;9.936;2023-11-22T04:40:34;15.75;;;6.10;;
47960;SDS011;33721;48.852;9.936;2023-11-22T04:43:00;16.77;;;6.25;;
47960;SDS011;33721;48.852;9.936;2023-11-22T04:45:25;17.95;;;6.95;;
47960;SDS011;33721;48.852;9.936;2023-11-22T04:47:51;15.60;;;6.97;;
47960;SDS011;33721;48.852;9.936;2023-11-22T04:50:17;18.65;;;7.15;;
47960;SDS011;33721;48.852;9.936;2023-11-22T04:52:42;14.80;;;6.93;;
47960;SDS011;33721;48.852;9.936;2023-11-22T04:55:08;24.80;;;9.05;;
47960;SDS011;33721;48.852;9.936;2023-11-22T04:57:34;17.70;;;7.82;;
47960;SDS011;33721;48.852;9.936;2023-11-22T05:00:00;21.20;;;9.20;;
47960;SDS011;33721;48.852;9.936;2023-11-22T05:02:26;24.77;;;9.45;;
47960;SDS011;33721;48.852;9.936;2023-11-22T05:04:52;22.58;;;9.70;;
47960;SDS011;33721;48.852;9.936;2023-11-22T05:07:18;18.85;;;8.80;;
47960;SDS011;33721;48.852;9.936;2023-11-22T05:09:46;18.02;;;8.02;;
47960;SDS011;33721;48.852;9.936;2023-11-22T05:12:12;21.02;;;9.00;;
47960;SDS011;33721;48.852;9.936;2023-11-22T05:14:40;23.17;;;9.73;;
47960;SDS011;33721;48.852;9.936;2023-11-22T05:19:34;17.40;;;7.45;;
47960;SDS011;33721;48.852;9.936;2023-11-22T05:21:59;16.30;;;6.93;;
47960;SDS011;33721;48.852;9.936;2023-11-22T05:24:25;30.70;;;11.60;;
47960;SDS011;33721;48.852;9.936;2023-11-22T05:26:51;19.10;;;8.65;;
47960;SDS011;33721;48.852;9.936;2023-11-22T05:29:17;23.75;;;10.05;;
47960;SDS011;33721;48.852;9.936;2023-11-22T05:31:42;23.70;;;9.88;;
47960;SDS011;33721;48.852;9.936;2023-11-22T05:34:08;24.15;;;9.68;;
47960;SDS011;33721;48.852;9.936;2023-11-22T05:36:33;19.50;;;7.90;;
47960;SDS011;33721;48.852;9.936;2023-11-22T05:38:59;18.55;;;8.10;;
47960;SDS011;33721;48.852;9.936;2023-11-22T05:41:25;20.33;;;7.57;;
47960;SDS011;33721;48.852;9.936;2023-11-22T05:43:51;16.08;;;7.75;;
47960;SDS011;33721;48.852;9.936;2023-11-22T05:46:18;20.30;;;7.95;;
47960;SDS011;33721;48.852;9.936;2023-11-22T05:48:56;17.00;;;7.33;;
47960;SDS011;33721;48.852;9.936;2023-11-22T05:51:22;21.20;;;8.15;;
47960;SDS011;33721;48.852;9.936;2023-11-22T05:53:47;23.88;;;8.60;;
47960;SDS011;33721;48.852;9.936;2023-11-22T05:56:13;19.13;;;8.00;;
47960;SDS011;33721;48.852;9.936;2023-11-22T05:58:40;38.47;;;11.57;;
47960;SDS011;33721;48.852;9.936;2023-11-22T06:01:06;24.27;;;9.60;;
47960;SDS011;33721;48.852;9.936;2023-11-22T06:03:32;22.55;;;8.18;;
47960;SDS011;33721;48.852;9.936;2023-11-22T06:05:58;21.33;;;8.55;;
47960;SDS011;33721;48.852;9.936;2023-11-22T06:08:24;17.15;;;7.50;;
47960;SDS011;33721;48.852;9.936;2023-11-22T06:10:49;19.30;;;7.72;;
47960;SDS011;33721;48.852;9.936;2023-11-22T06:13:16;15.55;;;7.03;;
47960;SDS011;33721;48.852;9.936;2023-11-22T06:15:42;14.65;;;6.65;;
47960;SDS011;33721;48.852;9.936;2023-11-22T06:18:08;14.48;;;6.57;;
47960;SDS011;33721;48.852;9.936;2023-11-22T06:20:33;18.35;;;7.80;;
47960;SDS011;33721;48.852;9.936;2023-11-22T06:22:59;15.05;;;6.93;;
47960;SDS011;33721;48.852;9.936;2023-11-22T06:25:25;19.15;;;6.30;;
47960;SDS011;33721;48.852;9.936;2023-11-22T06:27:50;14.52;;;6.10;;
47960;SDS011;33721;48.852;9.936;2023-11-22T06:30:16;14.60;;;5.88;;
47960;SDS011;33721;48.852;9.936;2023-11-22T06:32:41;14.68;;;5.45;;
47960;SDS011;33721;48.852;9.936;2023-11-22T06:35:08;15.43;;;6.00;;
47960;SDS011;33721;48.852;9.936;2023-11-22T06:37:35;12.63;;;5.68;;
47960;SDS011;33721;48.852;9.936;2023-11-22T06:40:01;13.15;;;5.93;;
47960;SDS011;33721;48.852;9.936;2023-11-22T06:42:26;11.32;;;5.43;;
47960;SDS011;33721;48.852;9.936;2023-11-22T06:44:52;13.38;;;5.65;;
47960;SDS011;33721;48.852;9.936;2023-11-22T06:47:19;14.07;;;5.55;;
47960;SDS011;33721;48.852;9.936;2023-11-22T06:49:44;14.05;;;6.00;;
47960;SDS011;33721;48.852;9.936;2023-11-22T06:52:11;14.93;;;5.43;;
47960;SDS011;33721;48.852;9.936;2023-11-22T06:54:37;13.85;;;5.75;;
47960;SDS011;33721;48.852;9.936;2023-11-22T06:57:03;12.40;;;5.20;;
47960;SDS011;33721;48.852;9.936;2023-11-22T06:59:29;14.70;;;5.22;;
47960;SDS011;33721;48.852;9.936;2023-11-22T07:01:54;10.32;;;4.43;;
47960;SDS011;33721;48.852;9.936;2023-11-22T07:04:23;9.27;;;4.22;;
47960;SDS011;33721;48.852;9.936;2023-11-22T07:06:49;9.57;;;4.55;;
47960;SDS011;33721;48.852;9.936;2023-11-22T07:09:15;7.60;;;3.90;;
47960;SDS011;33721;48.852;9.936;2023-11-22T07:11:40;11.02;;;4.65;;
47960;SDS011;33721;48.852;9.936;2023-11-22T07:14:09;9.73;;;4.63;;
47960;SDS011;33721;48.852;9.936;2023-11-22T07:16:34;8.63;;;4.18;;
47960;SDS011;33721;48.852;9.936;2023-11-22T07:19:00;8.70;;;4.05;;
47960;SDS011;33721;48.852;9.936;2023-11-22T07:21:31;9.70;;;4.55;;
47960;SDS011;33721;48.852;9.936;2023-11-22T07:23:58;9.80;;;4.28;;
47960;SDS011;33721;48.852;9.936;2023-11-22T07:26:26;10.73;;;4.80;;
47960;SDS011;33721;48.852;9.936;2023-11-22T07:28:55;10.02;;;4.68;;
47960;SDS011;33721;48.852;9.936;2023-11-22T07:31:20;11.70;;;4.65;;
47960;SDS011;33721;48.852;9.936;2023-11-22T07:33:47;8.93;;;4.43;;
47960;SDS011;33721;48.852;9.936;2023-11-22T07:36:13;9.15;;;4.45;;
47960;SDS011;33721;48.852;9.936;2023-11-22T07:38:40;11.40;;;4.80;;
47960;SDS011;33721;48.852;9.936;2023-11-22T07:41:07;9.40;;;4.60;;
47960;SDS011;33721;48.852;9.936;2023-11-22T07:43:33;11.40;;;4.95;;
47960;SDS011;33721;48.852;9.936;2023-11-22T07:45:59;11.85;;;4.95;;
47960;SDS011;33721;48.852;9.936;2023-11-22T07:48:26;11.68;;;4.82;;
47960;SDS011;33721;48.852;9.936;2023-11-22T07:50:53;10.85;;;4.95;;
47960;SDS011;33721;48.852;9.936;2023-11-22T07:53:19;11.18;;;5.03;;
47960;SDS011;33721;48.852;9.936;2023-11-22T07:55:45;10.35;;;4.45;;
47960;SDS011;33721;48.852;9.936;2023-11-22T07:58:10;9.88;;;4.18;;
47960;SDS011;33721;48.852;9.936;2023-11-22T08:00:36;8.82;;;4.10;;
47960;SDS011;33721;48.852;9.936;2023-11-22T08:03:02;11.38;;;4.55;;
47960;SDS011;33721;48.852;9.936;2023-11-22T08:05:30;10.13;;;4.60;;
47960;SDS011;33721;48.852;9.936;2023-11-22T08:08:04;13.23;;;5.07;;
47960;SDS011;33721;48.852;9.936;2023-11-22T08:10:34;15.40;;;5.65;;
47960;SDS011;33721;48.852;9.936;2023-11-22T08:13:00;13.70;;;5.72;;
47960;SDS011;33721;48.852;9.936;2023-11-22T08:15:27;13.25;;;5.22;;
47960;SDS011;33721;48.852;9.936;2023-11-22T08:17:53;14.95;;;6.38;;
47960;SDS011;33721;48.852;9.936;2023-11-22T08:20:19;13.40;;;6.03;;
47960;SDS011;33721;48.852;9.936;2023-11-22T08:22:45;13.35;;;6.10;;
47960;SDS011;33721;48.852;9.936;2023-11-22T08:25:12;14.32;;;6.03;;
47960;SDS011;33721;48.852;9.936;2023-11-22T08:27:38;14.35;;;6.30;;
47960;SDS011;33721;48.852;9.936;2023-11-22T08:30:06;18.67;;;6.60;;
47960;SDS011;33721;48.852;9.936;2023-11-22T08:32:38;13.48;;;6.03;;
47960;SDS011;33721;48.852;9.936;2023-11-22T08:35:08;14.70;;;6.88;;
47960;SDS011;33721;48.852;9.936;2023-11-22T08:37:34;13.18;;;6.28;;
47960;SDS011;33721;48.852;9.936;2023-11-22T08:40:03;14.63;;;6.43;;
47960;SDS011;33721;48.852;9.936;2023-11-22T08:42:32;17.10;;;6.65;;
47960;SDS011;33721;48.852;9.936;2023-11-22T08:44:59;16.60;;;6.57;;
47960;SDS011;33721;48.852;9.936;2023-11-22T08:47:24;15.02;;;6.32;;
47960;SDS011;33721;48.852;9.936;2023-11-22T08:49:50;14.85;;;6.38;;
47960;SDS011;33721;48.852;9.936;2023-11-22T08:52:15;20.73;;;6.50;;
47960;SDS011;33721;48.852;9.936;2023-11-22T08:54:41;15.93;;;6.78;;
47960;SDS011;33721;48.852;9.936;2023-11-22T08:57:07;15.55;;;6.47;;
47960;SDS011;33721;48.852;9.936;2023-11-22T08:59:32;11.57;;;6.13;;
47960;SDS011;33721;48.852;9.936;2023-11-22T09:02:03;17.52;;;7.03;;
47960;SDS011;33721;48.852;9.936;2023-11-22T09:04:29;14.95;;;6.25;;
47960;SDS011;33721;48.852;9.936;2023-11-22T09:06:56;12.63;;;5.68;;
47960;SDS011;33721;48.852;9.936;2023-11-22T09:09:22;15.30;;;6.93;;
47960;SDS011;33721;48.852;9.936;2023-11-22T09:11:55;13.68;;;6.45;;
47960;SDS011;33721;48.852;9.936;2023-11-22T09:14:22;97.88;;;31.10;;
47960;SDS011;33721;48.852;9.936;2023-11-22T09:16:48;131.18;;;38.30;;
47960;SDS011;33721;48.852;9.936;2023-11-22T09:19:19;103.40;;;33.35;;
47960;SDS011;33721;48.852;9.936;2023-11-22T09:21:49;36.55;;;14.32;;
47960;SDS011;33721;48.852;9.936;2023-11-22T09:24:15;18.20;;;7.90;;
47960;SDS011;33721;48.852;9.936;2023-11-22T09:26:41;17.48;;;7.38;;
47960;SDS011;33721;48.852;9.936;2023-11-22T09:29:07;15.02;;;6.55;;
47960;SDS011;33721;48.852;9.936;2023-11-22T09:31:33;17.17;;;7.70;;
47960;SDS011;33721;48.852;9.936;2023-11-22T09:34:00;13.70;;;6.80;;
47960;SDS011;33721;48.852;9.936;2023-11-22T09:36:26;16.08;;;6.38;;
47960;SDS011;33721;48.852;9.936;2023-11-22T09:38:52;14.55;;;6.50;;
47960;SDS011;33721;48.852;9.936;2023-11-22T09:41:19;15.85;;;6.75;;
47960;SDS011;33721;48.852;9.936;2023-11-22T09:43:46;16.33;;;7.00;;
47960;SDS011;33721;48.852;9.936;2023-11-22T09:46:14;15.57;;;6.90;;
47960;SDS011;33721;48.852;9.936;2023-11-22T09:48:44;17.77;;;7.47;;
47960;SDS011;33721;48.852;9.936;2023-11-22T09:51:33;20.58;;;7.90;;
47960;SDS011;33721;48.852;9.936;2023-11-22T09:54:05;24.95;;;10.13;;
47960;SDS011;33721;48.852;9.936;2023-11-22T09:56:34;33.78;;;11.10;;
47960;SDS011;33721;48.852;9.936;2023-11-22T09:59:03;24.85;;;9.70;;
47960;SDS011;33721;48.852;9.936;2023-11-22T10:01:29;15.13;;;6.68;;
47960;SDS011;33721;48.852;9.936;2023-11-22T10:04:13;13.77;;;6.50;;
47960;SDS011;33721;48.852;9.936;2023-11-22T10:06:40;16.27;;;6.85;;
47960;SDS011;33721;48.852;9.936;2023-11-22T10:09:11;19.73;;;8.40;;
47960;SDS011;33721;48.852;9.936;2023-11-22T10:11:39;16.75;;;7.32;;
47960;SDS011;33721;48.852;9.936;2023-11-22T10:14:08;26.48;;;9.48;;
47960;SDS011;33721;48.852;9.936;2023-11-22T10:16:34;22.80;;;9.15;;
47960;SDS011;33721;48.852;9.936;2023-11-22T10:19:00;25.08;;;9.80;;
47960;SDS011;33721;48.852;9.936;2023-11-22T10:21:26;21.65;;;9.15;;
47960;SDS011;33721;48.852;9.936;2023-11-22T10:26:21;19.20;;;8.50;;
47960;SDS011;33721;48.852;9.936;2023-11-22T10:28:50;25.45;;;10.75;;
47960;SDS011;33721;48.852;9.936;2023-11-22T10:31:16;16.70;;;7.47;;
47960;SDS011;33721;48.852;9.936;2023-11-22T10:33:46;14.82;;;6.72;;
47960;SDS011;33721;48.852;9.936;2023-11-22T10:36:12;17.98;;;7.95;;
47960;SDS011;33721;48.852;9.936;2023-11-22T10:38:40;15.05;;;6.80;;
47960;SDS011;33721;48.852;9.936;2023-11-22T10:41:07;26.70;;;12.68;;
47960;SDS011;33721;48.852;9.936;2023-11-22T10:43:36;16.83;;;7.57;;
47960;SDS011;33721;48.852;9.936;2023-11-22T10:46:02;13.38;;;6.13;;
47960;SDS011;33721;48.852;9.936;2023-11-22T10:48:30;16.70;;;7.13;;
47960;SDS011;33721;48.852;9.936;2023-11-22T10:51:02;17.33;;;6.03;;
47960;SDS011;33721;48.852;9.936;2023-11-22T10:53:36;12.20;;;5.57;;
47960;SDS011;33721;48.852;9.936;2023-11-22T10:58:39;14.10;;;6.43;;
47960;SDS011;33721;48.852;9.936;2023-11-22T11:01:15;15.18;;;6.63;;
47960;SDS011;33721;48.852;9.936;2023-11-22T11:04:32;14.02;;;6.65;;
47960;SDS011;33721;48.852;9.936;2023-11-22T11:06:42;14.43;;;6.57;;
47960;SDS011;33721;48.852;9.936;2023-11-22T11:09:11;16.60;;;6.75;;
47960;SDS011;33721;48.852;9.936;2023-11-22T11:11:40;29.60;;;11.18;;
47960;SDS011;33721;48.852;9.936;2023-11-22T11:14:07;30.40;;;10.77;;
47960;SDS011;33721;48.852;9.936;2023-11-22T11:16:36;18.65;;;7.65;;
47960;SDS011;33721;48.852;9.936;2023-11-22T11:19:06;18.35;;;7.68;;
47960;SDS011;33721;48.852;9.936;2023-11-22T11:21:33;24.13;;;9.68;;
47960;SDS011;33721;48.852;9.936;2023-11-22T11:23:58;20.73;;;8.23;;
47960;SDS011;33721;48.852;9.936;2023-11-22T11:26:28;14.23;;;6.63;;
47960;SDS011;33721;48.852;9.936;2023-11-22T11:28:56;23.75;;;7.88;;
47960;SDS011;33721;48.852;9.936;2023-11-22T11:31:25;18.73;;;7.15;;
47960;SDS011;33721;48.852;9.936;2023-11-22T11:34:07;18.00;;;8.07;;
47960;SDS011;33721;48.852;9.936;2023-11-22T11:36:33;28.70;;;12.18;;
47960;SDS011;33721;48.852;9.936;2023-11-22T11:39:02;21.73;;;9.70;;
47960;SDS011;33721;48.852;9.936;2023-11-22T11:41:34;36.95;;;13.73;;
47960;SDS011;33721;48.852;9.936;2023-11-22T11:44:02;17.38;;;8.30;;
47960;SDS011;33721;48.852;9.936;2023-11-22T11:46:28;15.93;;;7.45;;
47960;SDS011;33721;48.852;9.936;2023-11-22T11:48:55;19.00;;;8.40;;
47960;SDS011;33721;48.852;9.936;2023-11-22T11:51:24;21.10;;;8.48;;
47960;SDS011;33721;48.852;9.936;2023-11-22T11:53:52;20.73;;;8.95;;
47960;SDS011;33721;48.852;9.936;2023-11-22T11:56:18;18.25;;;8.05;;
47960;SDS011;33721;48.852;9.936;2023-11-22T11:58:45;16.83;;;7.93;;
47960;SDS011;33721;48.852;9.936;2023-11-22T12:01:13;31.50;;;12.10;;
47960;SDS011;33721;48.852;9.936;2023-11-22T12:03:40;17.73;;;7.43;;
47960;SDS011;33721;48.852;9.936;2023-11-22T12:06:08;22.67;;;9.38;;
47960;SDS011;33721;48.852;9.936;2023-11-22T12:08:34;16.48;;;7.70;;
47960;SDS011;33721;48.852;9.936;2023-11-22T12:11:01;17.17;;;7.30;;
47960;SDS011;33721;48.852;9.936;2023-11-22T12:13:30;20.20;;;8.45;;
47960;SDS011;33721;48.852;9.936;2023-11-22T12:15:57;18.17;;;8.07;;
47960;SDS011;33721;48.852;9.936;2023-11-22T12:18:23;18.13;;;8.43;;
47960;SDS011;33721;48.852;9.936;2023-11-22T12:20:56;19.27;;;8.52;;
47960;SDS011;33721;48.852;9.936;2023-11-22T12:23:23;19.27;;;8.63;;
47960;SDS011;33721;48.852;9.936;2023-11-22T12:25:54;18.13;;;8.13;;
47960;SDS011;33721;48.852;9.936;2023-11-22T12:30:47;15.98;;;6.88;;
47960;SDS011;33721;48.852;9.936;2023-11-22T12:33:13;15.85;;;7.53;;
47960;SDS011;33721;48.852;9.936;2023-11-22T12:35:43;18.47;;;7.80;;
47960;SDS011;33721;48.852;9.936;2023-11-22T12:38:09;15.25;;;7.07;;
47960;SDS011;33721;48.852;9.936;2023-11-22T12:40:35;15.90;;;6.97;;
47960;SDS011;33721;48.852;9.936;2023-11-22T12:43:01;15.15;;;7.28;;
47960;SDS011;33721;48.852;9.936;2023-11-22T12:45:32;15.57;;;6.90;;
47960;SDS011;33721;48.852;9.936;2023-11-22T12:48:19;17.92;;;7.47;;
47960;SDS011;33721;48.852;9.936;2023-11-22T12:50:48;20.35;;;8.18;;
47960;SDS011;33721;48.852;9.936;2023-11-22T12:53:15;18.52;;;7.85;;
47960;SDS011;33721;48.852;9.936;2023-11-22T12:55:47;16.52;;;7.75;;
47960;SDS011;33721;48.852;9.936;2023-11-22T12:58:17;16.13;;;7.00;;
47960;SDS011;33721;48.852;9.936;2023-11-22T13:00:44;16.20;;;7.22;;
47960;SDS011;33721;48.852;9.936;2023-11-22T13:03:11;19.42;;;8.60;;
47960;SDS011;33721;48.852;9.936;2023-11-22T13:05:38;17.38;;;7.97;;
47960;SDS011;33721;48.852;9.936;2023-11-22T13:08:04;17.00;;;7.28;;
47960;SDS011;33721;48.852;9.936;2023-11-22T13:10:30;17.40;;;8.13;;
47960;SDS011;33721;48.852;9.936;2023-11-22T13:12:59;18.73;;;7.97;;
47960;SDS011;33721;48.852;9.936;2023-11-22T13:15:26;24.60;;;9.38;;
47960;SDS011;33721;48.852;9.936;2023-11-22T13:17:54;30.15;;;11.00;;
47960;SDS011;33721;48.852;9.936;2023-11-22T13:20:24;22.92;;;9.45;;
47960;SDS011;33721;48.852;9.936;2023-11-22T13:22:51;21.52;;;8.70;;
47960;SDS011;33721;48.852;9.936;2023-11-22T13:25:17;18.85;;;8.63;;
47960;SDS011;33721;48.852;9.936;2023-11-22T13:27:44;17.58;;;8.45;;
47960;SDS011;33721;48.852;9.936;2023-11-22T13:30:16;18.38;;;8.75;;
47960;SDS011;33721;48.852;9.936;2023-11-22T13:32:45;20.70;;;8.68;;
47960;SDS011;33721;48.852;9.936;2023-11-22T13:35:11;18.15;;;8.25;;
47960;SDS011;33721;48.852;9.936;2023-11-22T13:37:40;19.58;;;8.63;;
47960;SDS011;33721;48.852;9.936;2023-11-22T13:40:08;20.48;;;8.88;;
47960;SDS011;33721;48.852;9.936;2023-11-22T13:42:46;19.52;;;8.75;;
47960;SDS011;33721;48.852;9.936;2023-11-22T13:45:13;20.65;;;9.13;;
47960;SDS011;33721;48.852;9.936;2023-11-22T13:47:49;25.27;;;10.38;;
47960;SDS011;33721;48.852;9.936;2023-11-22T13:50:19;26.20;;;11.88;;
47960;SDS011;33721;48.852;9.936;2023-11-22T13:52:47;23.88;;;10.60;;
47960;SDS011;33721;48.852;9.936;2023-11-22T13:55:16;21.45;;;9.10;;
47960;SDS011;33721;48.852;9.936;2023-11-22T13:57:53;22.40;;;9.15;;
47960;SDS011;33721;48.852;9.936;2023-11-22T14:00:24;25.85;;;11.43;;
47960;SDS011;33721;48.852;9.936;2023-11-22T14:02:58;23.55;;;10.40;;
47960;SDS011;33721;48.852;9.936;2023-11-22T14:05:29;27.75;;;10.43;;
47960;SDS011;33721;48.852;9.936;2023-11-22T14:07:55;23.70;;;9.77;;
47960;SDS011;33721;48.852;9.936;2023-11-22T14:10:21;23.95;;;10.63;;
47960;SDS011;33721;48.852;9.936;2023-11-22T14:12:47;22.15;;;9.65;;
47960;SDS011;33721;48.852;9.936;2023-11-22T14:15:14;25.67;;;10.18;;
47960;SDS011;33721;48.852;9.936;2023-11-22T14:17:40;23.80;;;9.50;;
47960;SDS011;33721;48.852;9.936;2023-11-22T14:20:09;20.35;;;9.43;;
47960;SDS011;33721;48.852;9.936;2023-11-22T14:22:36;28.13;;;9.45;;
47960;SDS011;33721;48.852;9.936;2023-11-22T14:25:02;22.60;;;9.85;;
47960;SDS011;33721;48.852;9.936;2023-11-22T14:27:32;28.45;;;10.65;;
47960;SDS011;33721;48.852;9.936;2023-11-22T14:29:59;33.40;;;13.80;;
47960;SDS011;33721;48.852;9.936;2023-11-22T14:32:25;29.13;;;11.88;;
47960;SDS011;33721;48.852;9.936;2023-11-22T14:34:50;24.17;;;10.02;;
47960;SDS011;33721;48.852;9.936;2023-11-22T14:37:18;30.85;;;11.45;;
47960;SDS011;33721;48.852;9.936;2023-11-22T14:39:44;26.63;;;11.35;;
47960;SDS011;33721;48.852;9.936;2023-11-22T14:42:10;22.45;;;10.45;;
47960;SDS011;33721;48.852;9.936;2023-11-22T14:44:36;24.90;;;10.65;;